Time;durP1;ratioP1;P1;durP2;ratioP2;P2;SDS_P1;SDS_P2;PMS_P1;PMS_P2;Temp;Humidity;BMP_temperature;BMP_pressure;BME280_temperature;BME280_humidity;BME280_pressure;Samples;Min_cycle;Max_cycle;Signal;HPM_P1;HPM_P2
2023/09/29 00:01:35;;;;;;;;;;;;;;;31.94;27.62;98756.16;5012875;28;19965;-89
2023/09/29 00:04:01;;;;;;;;;;;;;;;31.93;27.37;98756.59;5006236;28;20381;-89
2023/09/29 00:06:27;;;;;;;;;;;;;;;32.00;27.25;98759.97;5009522;28;20371;-89
2023/09/29 00:08:53;;;;;;;;;;;;;;;31.96;27.47;98758.50;5001941;28;20385;-89
2023/09/29 00:11:19;;;;;;;;;;;;;;;31.98;27.48;98761.69;5004217;28;19932;-88
2023/09/29 00:13:45;;;;;;;;;;;;;;;32.12;27.57;98752.53;5008526;28;19932;-89
2023/09/29 00:16:11;;;;;;;;;;;;;;;32.24;27.26;98756.50;5002728;28;20476;-89
2023/09/29 00:18:37;;;;;;;;;;;;;;;32.08;26.15;98758.41;5009004;28;19929;-89
2023/09/29 00:21:03;;;;;;;;;;;;;;;31.87;26.97;98756.47;5009475;28;19964;-89
2023/09/29 00:23:30;;;;;;;;;;;;;;;32.01;26.51;98753.03;5008329;28;19922;-89
2023/09/29 00:25:56;;;;;;;;;;;;;;;32.11;26.57;98761.56;5003349;28;19922;-89
2023/09/29 00:28:22;;;;;;;;;;;;;;;32.12;26.60;98757.44;5027622;28;19921;-89
2023/09/29 00:30:48;;;;;;;;;;;;;;;32.18;26.52;98756.34;5013754;28;20023;-89
2023/09/29 00:33:14;;;;;;;;;;;;;;;31.96;27.10;98753.66;5015864;28;20008;-89
2023/09/29 00:35:40;;;;;;;;;;;;;;;31.97;26.84;98754.44;5007157;28;19921;-89
2023/09/29 00:38:06;;;;;;;;;;;;;;;31.69;26.51;98759.28;5011879;28;19933;-89
2023/09/29 00:40:32;;;;;;;;;;;;;;;31.80;26.75;98750.28;5010389;28;19924;-89
2023/09/29 00:42:59;;;;;;;;;;;;;;;31.80;26.92;98751.09;5009115;28;19925;-89
2023/09/29 00:45:26;;;;;;;;;;;;;;;31.92;26.90;98743.69;5007484;28;19925;-89
2023/09/29 00:47:55;;;;;;;;;;;;;;;31.82;26.88;98742.88;5010255;28;20352;-89
2023/09/29 00:50:23;;;;;;;;;;;;;;;31.65;26.90;98749.31;5004849;28;19925;-89
2023/09/29 00:52:50;;;;;;;;;;;;;;;31.76;26.60;98744.78;5007020;28;19963;-89
2023/09/29 00:55:17;;;;;;;;;;;;;;;31.72;26.94;98743.31;5008598;28;19921;-89
2023/09/29 00:57:45;;;;;;;;;;;;;;;31.78;26.52;98747.94;5011895;28;19922;-88
2023/09/29 01:02:48;;;;;;;;;;;;;;;31.78;26.55;98755.66;5004230;28;19921;-89
2023/09/29 01:05:14;;;;;;;;;;;;;;;31.95;26.86;98754.88;5009908;28;19929;-89
2023/09/29 01:07:43;;;;;;;;;;;;;;;32.05;26.36;98747.19;5010949;28;19921;-89
2023/09/29 01:10:11;;;;;;;;;;;;;;;32.03;26.05;98747.66;5010376;28;19925;-88
2023/09/29 01:12:37;;;;;;;;;;;;;;;31.95;25.98;98754.88;5011043;28;19922;-89
2023/09/29 01:15:05;;;;;;;;;;;;;;;31.79;26.15;98752.31;5013124;28;20008;-89
2023/09/29 01:17:31;;;;;;;;;;;;;;;31.63;26.91;98749.78;5012025;28;19921;-89
2023/09/29 01:19:58;;;;;;;;;;;;;;;31.54;26.95;98746.91;5011681;28;19940;-89
2023/09/29 01:22:24;;;;;;;;;;;;;;;31.51;26.92;98749.94;5002517;28;19929;-89
2023/09/29 01:24:51;;;;;;;;;;;;;;;31.76;26.56;98741.94;5013935;28;20399;-88
2023/09/29 01:27:17;;;;;;;;;;;;;;;31.77;27.16;98754.06;5004335;28;20293;-90
2023/09/29 01:29:44;;;;;;;;;;;;;;;31.46;27.11;98742.78;5011801;28;19922;-89
2023/09/29 01:32:11;;;;;;;;;;;;;;;31.47;27.03;98749.25;5007919;28;19922;-88
2023/09/29 01:34:37;;;;;;;;;;;;;;;31.53;26.78;98748.16;5012434;28;19922;-89
2023/09/29 01:37:04;;;;;;;;;;;;;;;31.73;26.77;98759.91;5005608;28;19925;-88
2023/09/29 01:39:30;;;;;;;;;;;;;;;31.76;26.64;98753.28;5013066;28;19953;-89
2023/09/29 01:41:56;;;;;;;;;;;;;;;31.62;26.25;98751.06;5006204;28;20010;-89
2023/09/29 01:44:22;;;;;;;;;;;;;;;31.67;26.75;98753.25;5005361;28;19968;-90
2023/09/29 01:46:49;;;;;;;;;;;;;;;31.85;26.52;98756.13;5008453;28;20013;-89
2023/09/29 01:49:15;;;;;;;;;;;;;;;31.98;26.31;98756.81;5010155;28;20381;-90
2023/09/29 01:51:44;;;;;;;;;;;;;;;31.84;25.89;98751.72;5010358;28;19940;-90
2023/09/29 01:54:10;;;;;;;;;;;;;;;31.85;25.84;98758.19;5011405;28;20285;-90
2023/09/29 01:56:36;;;;;;;;;;;;;;;31.83;26.43;98764.34;5011815;28;20023;-89
2023/09/29 01:59:02;;;;;;;;;;;;;;;31.73;26.07;98757.06;5012085;28;20381;-88
2023/09/29 02:01:29;;;;;;;;;;;;;;;31.66;25.88;98762.25;5009572;28;19922;-89
2023/09/29 02:03:55;;;;;;;;;;;;;;;31.66;26.04;98763.03;5010494;28;19918;-89
2023/09/29 02:06:21;;;;;;;;;;;;;;;31.63;26.05;98761.13;4997743;28;19956;-89
2023/09/29 02:08:47;;;;;;;;;;;;;;;31.66;26.24;98762.25;5010456;28;20366;-89
2023/09/29 02:11:13;;;;;;;;;;;;;;;31.73;25.90;98768.44;5011412;28;19928;-89
2023/09/29 02:13:39;;;;;;;;;;;;;;;31.76;25.91;98769.53;5004964;28;19921;-89
2023/09/29 02:16:12;;;;;;;;;;;;;;;31.50;25.76;98766.16;5002849;28;19928;-90
2023/09/29 02:18:38;;;;;;;;;;;;;;;31.53;25.96;98775.78;5008120;28;19922;-89
2023/09/29 02:21:08;;;;;;;;;;;;;;;31.65;26.06;98772.03;5010900;28;19921;-89
2023/09/29 02:23:35;;;;;;;;;;;;;;;31.68;25.40;98771.09;5014452;28;19929;-89
2023/09/29 02:26:01;;;;;;;;;;;;;;;31.70;25.40;98774.25;5014752;28;19964;-89
2023/09/29 02:28:31;;;;;;;;;;;;;;;31.77;24.92;98769.06;5015016;28;19921;-89
2023/09/29 02:30:58;;;;;;;;;;;;;;;31.74;25.33;98767.16;5008570;28;20023;-89
2023/09/29 02:33:27;;;;;;;;;;;;;;;31.42;25.31;98774.16;5011650;28;19925;-89
2023/09/29 02:35:56;;;;;;;;;;;;;;;31.10;25.93;98768.97;5006416;28;20245;-90
2023/09/29 02:38:23;;;;;;;;;;;;;;;31.10;26.13;98768.19;5011249;28;19925;-89
2023/09/29 02:40:50;;;;;;;;;;;;;;;31.25;26.08;98763.53;5006673;28;19989;-89
2023/09/29 02:43:16;;;;;;;;;;;;;;;31.26;26.08;98767.94;5006425;28;20016;-88
2023/09/29 02:45:42;;;;;;;;;;;;;;;31.45;25.63;98766.78;5008650;28;19957;-89
2023/09/29 02:48:10;;;;;;;;;;;;;;;31.28;25.81;98771.88;5009750;28;20341;-88
2023/09/29 02:50:36;;;;;;;;;;;;;;;31.29;26.16;98767.81;5011653;28;19992;-88
2023/09/29 02:53:05;;;;;;;;;;;;;;;31.33;25.82;98767.63;5014965;28;19972;-88
2023/09/29 02:55:33;;;;;;;;;;;;;;;31.17;26.08;98759.38;5015945;28;19917;-89
2023/09/29 02:57:59;;;;;;;;;;;;;;;31.18;26.26;98763.81;5015033;28;20012;-89
2023/09/29 03:00:26;;;;;;;;;;;;;;;31.18;26.03;98761.75;5014321;28;20440;-89
2023/09/29 03:02:53;;;;;;;;;;;;;;;31.31;26.17;98765.28;5014497;28;20409;-89
2023/09/29 03:05:20;;;;;;;;;;;;;;;31.46;26.01;98759.81;5007474;28;19930;-89
2023/09/29 03:07:47;;;;;;;;;;;;;;;31.53;25.94;98767.28;5012929;28;19921;-89
2023/09/29 03:10:14;;;;;;;;;;;;;;;31.60;25.72;98756.38;5001622;28;19940;-89
2023/09/29 03:12:41;;;;;;;;;;;;;;;31.55;25.48;98757.03;5011822;28;19921;-89
2023/09/29 03:15:09;;;;;;;;;;;;;;;31.49;25.50;98753.22;5013464;28;20016;-89
2023/09/29 03:17:35;;;;;;;;;;;;;;;31.47;25.35;98752.91;5009106;28;20012;-88
2023/09/29 03:20:10;;;;;;;;;;;;;;;31.34;25.67;98755.81;5015258;28;19922;-88
2023/09/29 03:22:37;;;;;;;;;;;;;;;31.37;25.63;98748.41;5010840;28;19925;-89
2023/09/29 03:25:06;;;;;;;;;;;;;;;31.31;25.81;98747.47;5008504;28;19961;-88
2023/09/29 03:27:35;;;;;;;;;;;;;;;31.11;26.21;98749.91;5010446;28;19975;-89
2023/09/29 03:30:04;;;;;;;;;;;;;;;30.94;26.22;98746.53;5005066;28;19922;-89
2023/09/29 03:32:30;;;;;;;;;;;;;;;31.04;26.31;98745.28;5007933;28;19929;-89
2023/09/29 03:34:57;;;;;;;;;;;;;;;31.12;26.00;98740.91;5007791;28;20396;-89
2023/09/29 03:37:23;;;;;;;;;;;;;;;30.99;26.39;98745.91;5012982;28;19928;-88
2023/09/29 03:39:49;;;;;;;;;;;;;;;30.87;26.20;98746.78;5014879;28;19925;-88
2023/09/29 03:42:16;;;;;;;;;;;;;;;30.91;26.23;98743.81;5009758;28;19933;-88
2023/09/29 03:44:44;;;;;;;;;;;;;;;30.90;26.14;98742.25;5012615;28;19996;-88
2023/09/29 03:47:12;;;;;;;;;;;;;;;31.11;25.90;98745.00;5013871;28;19968;-88
2023/09/29 03:49:38;;;;;;;;;;;;;;;31.18;25.83;98752.47;5007113;28;19949;-89
2023/09/29 03:52:06;;;;;;;;;;;;;;;30.91;26.04;98738.94;5009196;28;20393;-88
2023/09/29 03:54:33;;;;;;;;;;;;;;;30.85;25.80;98743.63;5014345;28;19944;-89
2023/09/29 03:57:01;;;;;;;;;;;;;;;30.99;25.56;98740.25;5017620;28;20371;-89
2023/09/29 03:59:27;;;;;;;;;;;;;;;31.10;25.45;98743.44;5013920;28;19918;-89
2023/09/29 04:01:53;;;;;;;;;;;;;;;30.89;25.80;98734.97;5007791;28;19999;-89
2023/09/29 04:04:19;;;;;;;;;;;;;;;30.86;26.17;98741.53;5013927;28;19924;-87
2023/09/29 04:06:45;;;;;;;;;;;;;;;30.76;26.21;98735.81;5006655;28;20530;-87
2023/09/29 04:09:11;;;;;;;;;;;;;;;30.53;26.26;98735.53;5006483;28;19928;-87
2023/09/29 04:11:40;;;;;;;;;;;;;;;30.38;26.42;98737.31;5007470;28;19925;-86
2023/09/29 04:14:06;;;;;;;;;;;;;;;30.05;27.26;98736.88;5010182;28;19929;-87
2023/09/29 04:16:32;;;;;;;;;;;;;;;30.16;27.51;98740.13;5011193;28;19918;-87
2023/09/29 04:18:58;;;;;;;;;;;;;;;30.24;27.11;98737.81;5011860;28;19922;-88
2023/09/29 04:21:24;;;;;;;;;;;;;;;30.54;26.56;98728.63;5012189;28;19987;-88
2023/09/29 04:23:50;;;;;;;;;;;;;;;30.69;26.61;98735.34;5007240;28;19926;-88
2023/09/29 04:26:18;;;;;;;;;;;;;;;30.50;27.30;98737.25;5006723;28;19930;-88
2023/09/29 04:28:45;;;;;;;;;;;;;;;30.37;27.51;98736.53;4999753;28;19921;-86
2023/09/29 04:31:12;;;;;;;;;;;;;;;30.58;27.46;98732.09;5005020;28;19921;-91
2023/09/29 04:33:39;;;;;;;;;;;;;;;30.21;27.78;98731.03;5003870;28;19922;-90
2023/09/29 04:36:06;;;;;;;;;;;;;;;30.21;27.44;98736.69;5004076;28;20328;-89
2023/09/29 04:38:32;;;;;;;;;;;;;;;30.35;27.53;98732.56;5008356;28;19949;-88
2023/09/29 04:40:58;;;;;;;;;;;;;;;30.40;27.55;98735.63;5008788;28;19972;-88
2023/09/29 04:43:24;;;;;;;;;;;;;;;30.39;27.32;98734.03;5009315;28;19944;-88
2023/09/29 04:45:50;;;;;;;;;;;;;;;30.46;27.27;98736.59;5008496;28;20378;-91
2023/09/29 04:48:16;;;;;;;;;;;;;;;30.61;27.47;98737.66;5007051;28;19937;-91
2023/09/29 04:50:42;;;;;;;;;;;;;;;30.59;27.31;98733.69;5006003;28;19984;-89
2023/09/29 04:53:08;;;;;;;;;;;;;;;30.66;27.28;98739.09;5011069;28;19925;-87
2023/09/29 04:55:34;;;;;;;;;;;;;;;30.79;26.92;98742.63;5009521;28;20014;-87
2023/09/29 04:58:01;;;;;;;;;;;;;;;30.65;27.28;98741.13;5006744;28;19921;-94
2023/09/29 05:00:27;;;;;;;;;;;;;;;30.55;27.24;98733.03;5008996;28;19967;-89
2023/09/29 05:02:53;;;;;;;;;;;;;;;30.62;27.43;98736.38;5011577;28;20329;-90
2023/09/29 05:05:19;;;;;;;;;;;;;;;30.83;27.30;98736.81;5013074;28;19921;-90
2023/09/29 05:07:45;;;;;;;;;;;;;;;30.70;27.30;98732.03;5013239;28;19996;-90
2023/09/29 05:10:15;;;;;;;;;;;;;;;31.05;26.91;98723.38;5007766;28;19922;-89
2023/09/29 05:12:41;;;;;;;;;;;;;;;31.08;26.91;98725.31;5007272;28;20388;-89
2023/09/29 05:15:08;;;;;;;;;;;;;;;31.17;26.65;98737.47;5013317;28;19926;-90
2023/09/29 05:17:34;;;;;;;;;;;;;;;31.39;26.47;98732.50;5013669;28;19967;-90
2023/09/29 05:20:00;;;;;;;;;;;;;;;31.34;26.90;98730.28;5013474;28;19922;-89
2023/09/29 05:22:26;;;;;;;;;;;;;;;31.17;27.16;98740.31;5021244;28;19974;-90
2023/09/29 05:24:55;;;;;;;;;;;;;;;31.33;26.77;98728.72;5032390;28;20296;-90
2023/09/29 05:27:21;;;;;;;;;;;;;;;31.70;26.75;98735.28;5033631;28;20058;-90
2023/09/29 05:29:47;;;;;;;;;;;;;;;31.62;26.82;98738.91;5027958;28;19964;-89
2023/09/29 05:32:13;;;;;;;;;;;;;;;31.46;26.91;98733.50;5003379;28;20284;-89
2023/09/29 05:34:39;;;;;;;;;;;;;;;31.41;27.07;98737.72;5005546;28;20012;-90
2023/09/29 05:37:06;;;;;;;;;;;;;;;31.27;27.40;98735.47;5001608;28;20465;-90
2023/09/29 05:39:32;;;;;;;;;;;;;;;31.19;27.64;98737.00;5008948;28;19921;-90
2023/09/29 05:41:58;;;;;;;;;;;;;;;31.38;27.77;98741.50;4998703;28;19925;-90
2023/09/29 05:44:24;;;;;;;;;;;;;;;31.51;27.77;98744.25;5008472;28;20340;-90
2023/09/29 05:46:50;;;;;;;;;;;;;;;31.63;27.67;98741.25;5007552;28;19922;-89
2023/09/29 05:49:16;;;;;;;;;;;;;;;31.56;27.96;98740.75;5001873;28;19977;-89
2023/09/29 05:51:42;;;;;;;;;;;;;;;31.55;27.46;98751.34;5005015;28;20020;-90
2023/09/29 05:54:08;;;;;;;;;;;;;;;31.38;27.95;98747.97;5016133;28;19922;-90
2023/09/29 05:56:34;;;;;;;;;;;;;;;31.21;28.33;98743.00;5018011;28;20008;-89
2023/09/29 05:59:00;;;;;;;;;;;;;;;31.56;28.26;98747.25;5011608;28;20331;-89
2023/09/29 06:01:26;;;;;;;;;;;;;;;31.99;28.15;98749.09;5011750;28;20012;-90
2023/09/29 06:03:53;;;;;;;;;;;;;;;32.14;27.05;98750.03;5011697;28;20439;-88
2023/09/29 06:06:19;;;;;;;;;;;;;;;32.10;27.67;98746.56;5004696;28;19921;-88
2023/09/29 06:08:45;;;;;;;;;;;;;;;32.14;27.57;98750.03;5015251;28;19913;-88
2023/09/29 06:11:12;;;;;;;;;;;;;;;32.14;29.05;98750.03;5012849;28;19921;-89
2023/09/29 06:13:38;;;;;;;;;;;;;;;31.96;28.76;98759.34;4996632;28;19960;-88
2023/09/29 06:16:04;;;;;;;;;;;;;;;31.97;28.41;98762.97;5004249;28;19925;-88
2023/09/29 06:18:31;;;;;;;;;;;;;;;32.01;27.93;98755.88;5015900;28;19960;-88
2023/09/29 06:20:57;;;;;;;;;;;;;;;31.86;28.55;98757.72;5016736;28;19945;-88
2023/09/29 06:23:23;;;;;;;;;;;;;;;32.16;27.78;98761.69;5016450;28;19925;-88
2023/09/29 06:25:58;;;;;;;;;;;;;;;32.17;28.10;98757.59;5016962;28;19918;-88
2023/09/29 06:28:24;;;;;;;;;;;;;;;32.38;28.17;98756.66;5016322;28;19913;-88
2023/09/29 06:30:55;;;;;;;;;;;;;;;32.41;27.85;98754.91;5017816;28;19924;-87
2023/09/29 06:33:21;;;;;;;;;;;;;;;32.57;28.29;98757.44;5013424;28;20016;-87
2023/09/29 06:35:48;;;;;;;;;;;;;;;32.65;28.00;98747.34;5016112;28;19929;-87
2023/09/29 06:38:15;;;;;;;;;;;;;;;32.78;28.50;98755.66;5014634;28;19960;-87
2023/09/29 06:40:43;;;;;;;;;;;;;;;32.71;28.63;98768.16;5016832;28;19921;-87
2023/09/29 06:43:09;;;;;;;;;;;;;;;32.39;29.12;98763.13;5016758;28;19924;-88
2023/09/29 06:45:35;;;;;;;;;;;;;;;32.52;28.97;98756.03;5016222;28;20027;-87
2023/09/29 06:48:01;;;;;;;;;;;;;;;32.01;27.95;98757.91;5016327;28;20377;-87
2023/09/29 06:50:27;;;;;;;;;;;;;;;32.16;29.67;98766.63;5015416;28;19925;-87
2023/09/29 06:52:53;;;;;;;;;;;;;;;32.33;28.58;98765.81;5015864;28;19921;-87
2023/09/29 06:55:19;;;;;;;;;;;;;;;32.31;29.10;98762.66;5016438;28;19917;-87
2023/09/29 06:57:45;;;;;;;;;;;;;;;32.49;28.41;98768.34;5015904;28;19917;-87
2023/09/29 07:00:11;;;;;;;;;;;;;;;33.01;28.85;98769.19;5014887;28;19921;-87
2023/09/29 07:02:37;;;;;;;;;;;;;;;33.25;28.79;98765.19;5015256;28;19968;-87
2023/09/29 07:05:05;;;;;;;;;;;;;;;32.41;29.21;98772.78;5016690;28;19923;-88
2023/09/29 07:07:31;;;;;;;;;;;;;;;33.09;29.70;98776.97;5010468;28;19922;-87
2023/09/29 07:09:57;;;;;;;;;;;;;;;33.28;27.40;98774.81;5015355;28;20000;-87
2023/09/29 07:12:24;;;;;;;;;;;;;;;33.48;27.86;98777.09;5015574;28;19928;-87
2023/09/29 07:14:51;;;;;;;;;;;;;;;33.31;28.04;98776.69;5015282;28;19996;-87
2023/09/29 07:17:17;;;;;;;;;;;;;;;33.48;28.71;98777.88;5016092;28;19918;-87
2023/09/29 07:19:43;;;;;;;;;;;;;;;33.28;27.95;98781.28;5016237;28;19929;-87
2023/09/29 07:22:10;;;;;;;;;;;;;;;33.38;28.76;98782.03;5024692;28;19976;-87
2023/09/29 07:24:38;;;;;;;;;;;;;;;33.40;29.17;98782.34;5015471;28;20570;-86
2023/09/29 07:27:04;;;;;;;;;;;;;;;33.80;27.44;98782.78;5015992;28;19921;-87
2023/09/29 07:29:30;;;;;;;;;;;;;;;33.28;28.51;98781.28;5014603;28;19968;-87
2023/09/29 07:31:56;;;;;;;;;;;;;;;33.09;28.32;98781.84;5015598;28;19925;-87
2023/09/29 07:34:27;;;;;;;;;;;;;;;33.38;28.49;98784.88;5014415;28;19924;-87
2023/09/29 07:36:53;;;;;;;;;;;;;;;33.78;28.25;98782.50;5015436;28;19926;-87
2023/09/29 07:39:20;;;;;;;;;;;;;;;33.53;28.25;98785.00;5016243;28;19924;-87
2023/09/29 07:41:46;;;;;;;;;;;;;;;33.81;28.21;98778.69;5015645;28;20439;-86
2023/09/29 07:44:12;;;;;;;;;;;;;;;33.48;28.25;98775.03;5014306;28;19921;-87
2023/09/29 07:46:38;;;;;;;;;;;;;;;33.38;28.98;98785.69;5014575;28;19918;-87
2023/09/29 07:49:05;;;;;;;;;;;;;;;33.59;27.19;98775.31;5013717;28;19919;-87
2023/09/29 07:51:32;;;;;;;;;;;;;;;32.90;28.59;98783.13;5014636;28;19922;-87
2023/09/29 07:53:58;;;;;;;;;;;;;;;33.41;27.72;98786.78;5023098;28;20386;-87
2023/09/29 07:56:24;;;;;;;;;;;;;;;33.79;27.91;98791.84;5018863;28;20491;-87
2023/09/29 07:58:51;;;;;;;;;;;;;;;34.21;27.29;98786.03;5013925;28;19932;-87
2023/09/29 08:01:18;;;;;;;;;;;;;;;33.84;28.36;98789.09;5014650;28;20358;-87
2023/09/29 08:03:44;;;;;;;;;;;;;;;33.83;28.57;98789.59;5014774;28;19925;-87
2023/09/29 08:06:10;;;;;;;;;;;;;;;33.22;28.13;98779.59;5014136;28;19932;-87
2023/09/29 08:08:36;;;;;;;;;;;;;;;33.03;29.09;98784.56;5014189;28;19925;-87
2023/09/29 08:11:02;;;;;;;;;;;;;;;33.57;28.74;98785.63;5007263;28;19922;-87
2023/09/29 08:13:28;;;;;;;;;;;;;;;34.50;27.56;98789.72;5013627;28;19953;-86
2023/09/29 08:15:54;;;;;;;;;;;;;;;34.86;26.96;98788.63;5014023;28;20327;-87
2023/09/29 08:18:20;;;;;;;;;;;;;;;34.93;26.25;98788.22;5013301;28;20374;-87
2023/09/29 08:20:51;;;;;;;;;;;;;;;34.90;27.31;98794.91;5013336;28;19932;-86
2023/09/29 08:23:17;;;;;;;;;;;;;;;34.90;27.35;98794.13;5012550;28;19959;-87
2023/09/29 08:25:43;;;;;;;;;;;;;;;34.95;27.36;98793.44;5007856;28;19928;-87
2023/09/29 08:28:09;;;;;;;;;;;;;;;35.38;28.22;98787.72;5013520;28;19960;-87
2023/09/29 08:30:35;;;;;;;;;;;;;;;35.30;26.65;98783.72;5014477;28;19925;-87
2023/09/29 08:33:03;;;;;;;;;;;;;;;35.74;26.90;98792.19;5011722;28;19925;-87
2023/09/29 08:35:29;;;;;;;;;;;;;;;35.86;25.03;98787.41;5013271;28;19981;-87
2023/09/29 08:37:54;;;;;;;;;;;;;;;35.72;24.90;98791.13;5013540;28;20377;-87
2023/09/29 08:40:21;;;;;;;;;;;;;;;35.63;25.70;98796.97;5012127;28;19921;-87
2023/09/29 08:42:50;;;;;;;;;;;;;;;35.53;25.87;98790.56;5012196;28;20028;-87
2023/09/29 08:45:17;;;;;;;;;;;;;;;35.70;26.19;98783.06;5013429;28;19921;-87
2023/09/29 08:47:49;;;;;;;;;;;;;;;35.88;26.20;98781.97;5014723;28;20328;-87
2023/09/29 08:50:16;;;;;;;;;;;;;;;35.89;26.44;98798.66;5014562;28;19925;-87
2023/09/29 08:52:44;;;;;;;;;;;;;;;35.62;25.49;98796.16;5011924;28;19927;-88
2023/09/29 08:55:12;;;;;;;;;;;;;;;34.87;25.49;98795.13;5012752;28;19930;-87
2023/09/29 08:57:41;;;;;;;;;;;;;;;34.42;26.29;98794.25;5013624;28;19926;-87
2023/09/29 09:00:12;;;;;;;;;;;;;;;35.13;26.03;98794.06;5014188;28;20366;-87
2023/09/29 09:02:41;;;;;;;;;;;;;;;35.21;25.00;98791.59;5015012;28;19918;-86
2023/09/29 09:05:09;;;;;;;;;;;;;;;35.01;25.63;98794.34;5024510;28;19928;-86
2023/09/29 09:07:35;;;;;;;;;;;;;;;35.12;25.64;98789.63;5012946;28;19925;-86
2023/09/29 09:10:01;;;;;;;;;;;;;;;35.53;24.96;98790.56;5013868;28;19913;-87
2023/09/29 09:12:34;;;;;;;;;;;;;;;36.05;25.78;98788.75;5014257;28;19979;-87
2023/09/29 09:15:03;;;;;;;;;;;;;;;35.55;24.68;98781.50;5013668;28;19918;-86
2023/09/29 09:17:30;;;;;;;;;;;;;;;35.90;25.24;98785.91;5013755;28;20005;-86
2023/09/29 09:19:56;;;;;;;;;;;;;;;36.18;24.47;98785.50;5012184;28;20286;-86
2023/09/29 09:22:24;;;;;;;;;;;;;;;36.06;24.45;98779.66;5014113;28;19928;-86
2023/09/29 09:24:56;;;;;;;;;;;;;;;35.92;23.31;98785.41;5012616;28;19928;-87
2023/09/29 09:27:22;;;;;;;;;;;;;;;35.94;23.99;98792.19;5013536;28;19925;-87
2023/09/29 09:29:48;;;;;;;;;;;;;;;36.31;24.16;98777.38;5014030;28;19918;-86
2023/09/29 09:32:14;;;;;;;;;;;;;;;36.29;24.85;98783.59;5013508;28;19921;-87
2023/09/29 09:34:42;;;;;;;;;;;;;;;36.64;24.59;98784.28;5002993;28;19925;-85
2023/09/29 09:37:11;;;;;;;;;;;;;;;37.07;23.38;98787.31;5010495;28;20274;-85
2023/09/29 09:39:37;;;;;;;;;;;;;;;36.38;23.21;98782.66;5013516;28;20020;-87
2023/09/29 09:42:06;;;;;;;;;;;;;;;36.20;22.31;98780.09;5012690;28;19924;-87
2023/09/29 09:44:38;;;;;;;;;;;;;;;37.09;23.13;98781.88;5013537;28;19964;-87
2023/09/29 09:47:10;;;;;;;;;;;;;;;36.49;24.06;98782.81;5013915;28;19918;-87
2023/09/29 09:49:44;;;;;;;;;;;;;;;35.87;25.43;98771.84;5011816;28;19921;-87
2023/09/29 09:52:15;;;;;;;;;;;;;;;35.84;24.50;98782.22;5010937;28;19988;-87
2023/09/29 09:54:45;;;;;;;;;;;;;;;36.06;25.24;98773.94;5011999;28;19925;-87
2023/09/29 09:57:11;;;;;;;;;;;;;;;36.25;23.57;98777.28;5012789;28;19964;-87
2023/09/29 09:59:39;;;;;;;;;;;;;;;35.86;24.17;98773.13;5010314;28;19918;-88
2023/09/29 10:02:07;;;;;;;;;;;;;;;36.37;24.31;98779.00;5012885;28;19918;-88
2023/09/29 10:04:35;;;;;;;;;;;;;;;37.23;24.44;98778.09;5026864;28;20455;-87
2023/09/29 10:07:04;;;;;;;;;;;;;;;38.06;23.18;98778.69;5025077;28;20016;-88
2023/09/29 10:09:46;;;;;;;;;;;;;;;38.28;22.18;98778.81;5012000;28;19922;-88
2023/09/29 10:12:26;;;;;;;;;;;;;;;38.17;21.57;98775.06;5013213;28;19948;-87
2023/09/29 10:14:52;;;;;;;;;;;;;;;38.21;22.27;98770.66;5012697;28;19921;-87
2023/09/29 10:17:20;;;;;;;;;;;;;;;37.99;22.52;98779.19;5012432;28;19964;-86
2023/09/29 10:19:50;;;;;;;;;;;;;;;37.69;21.84;98773.00;5012624;28;20321;-85
2023/09/29 10:22:28;;;;;;;;;;;;;;;37.64;20.95;98772.94;5012387;28;19949;-85
2023/09/29 10:24:59;;;;;;;;;;;;;;;37.41;21.16;98766.28;5020447;28;19921;-86
2023/09/29 10:27:27;;;;;;;;;;;;;;;37.61;22.09;98769.03;5015886;28;20373;-86
2023/09/29 10:30:02;;;;;;;;;;;;;;;38.21;22.43;98767.78;5013681;28;19917;-84
2023/09/29 10:32:31;;;;;;;;;;;;;;;38.52;22.74;98769.75;5011840;28;19922;-86
2023/09/29 10:35:05;;;;;;;;;;;;;;;38.78;23.04;98775.31;5011925;28;20409;-88
2023/09/29 10:37:41;;;;;;;;;;;;;;;39.08;22.02;98770.66;5013406;28;19921;-88
2023/09/29 10:40:12;;;;;;;;;;;;;;;39.46;21.35;98769.09;5014828;28;19933;-89
2023/09/29 10:42:39;;;;;;;;;;;;;;;39.28;20.90;98764.69;5004620;28;20289;-92
2023/09/29 10:45:06;;;;;;;;;;;;;;;38.77;21.04;98754.44;5010846;28;19925;-92
2023/09/29 10:47:32;;;;;;;;;;;;;;;38.94;22.38;98749.50;5010001;28;19925;-92
2023/09/29 10:50:02;;;;;;;;;;;;;;;38.45;21.46;98753.03;5010292;28;19922;-91
2023/09/29 10:52:29;;;;;;;;;;;;;;;37.89;21.32;98752.81;5016321;28;19929;-90
2023/09/29 10:54:56;;;;;;;;;;;;;;;37.82;22.92;98749.59;5011195;28;19941;-92
2023/09/29 10:57:23;;;;;;;;;;;;;;;37.98;21.75;98746.06;5012949;28;19921;-92
2023/09/29 10:59:49;;;;;;;;;;;;;;;38.62;21.28;98746.03;5009902;28;19967;-93
2023/09/29 11:02:16;;;;;;;;;;;;;;;38.20;21.71;98748.22;5008682;28;20012;-94
2023/09/29 11:04:45;;;;;;;;;;;;;;;38.37;21.60;98734.75;5007967;28;19921;-90
2023/09/29 11:07:11;;;;;;;;;;;;;;;38.65;21.70;98732.75;5010580;28;19929;-93
2023/09/29 11:09:37;;;;;;;;;;;;;;;38.17;22.15;98732.84;5007806;28;20483;-91
2023/09/29 11:12:04;;;;;;;;;;;;;;;38.01;23.17;98727.81;5006085;28;20337;-89
2023/09/29 11:14:36;;;;;;;;;;;;;;;38.22;22.04;98725.53;5015276;28;20400;-89
2023/09/29 11:17:02;;;;;;;;;;;;;;;38.20;20.82;98716.69;5012769;28;19929;-88
2023/09/29 11:19:30;;;;;;;;;;;;;;;38.43;19.48;98713.38;5013909;28;19922;-88
2023/09/29 11:22:00;;;;;;;;;;;;;;;38.39;17.89;98710.00;5011578;28;20278;-88
2023/09/29 11:24:26;;;;;;;;;;;;;;;38.89;19.79;98706.41;5009582;28;19929;-88
2023/09/29 11:26:55;;;;;;;;;;;;;;;39.43;17.83;98698.28;5014009;28;20373;-88
2023/09/29 11:29:25;;;;;;;;;;;;;;;39.69;17.08;98696.69;5008509;28;20012;-89
2023/09/29 11:31:52;;;;;;;;;;;;;;;39.90;17.40;98697.91;5001314;28;19933;-88
2023/09/29 11:34:18;;;;;;;;;;;;;;;39.44;20.03;98692.03;5011157;28;20402;-88
2023/09/29 11:36:44;;;;;;;;;;;;;;;39.07;18.11;98700.91;5009599;28;20008;-87
2023/09/29 11:39:16;;;;;;;;;;;;;;;38.61;19.33;98694.88;5004907;28;20504;-88
2023/09/29 11:41:42;;;;;;;;;;;;;;;38.54;20.32;98693.31;5007563;28;19925;-86
2023/09/29 11:44:08;;;;;;;;;;;;;;;38.57;19.18;98680.78;5011060;28;19921;-88
2023/09/29 11:46:36;;;;;;;;;;;;;;;38.94;18.80;98676.91;5010414;28;19929;-86
2023/09/29 11:49:02;;;;;;;;;;;;;;;38.44;19.01;98679.72;5009484;28;20372;-86
2023/09/29 11:51:28;;;;;;;;;;;;;;;38.50;19.12;98675.56;5004659;28;19940;-86
2023/09/29 11:53:55;;;;;;;;;;;;;;;38.42;20.23;98680.22;5015958;28;19944;-86
2023/09/29 11:56:21;;;;;;;;;;;;;;;38.94;19.34;98676.91;5015483;28;19921;-85
2023/09/29 11:58:47;;;;;;;;;;;;;;;39.27;19.39;98665.41;5015287;28;19927;-88
2023/09/29 12:01:13;;;;;;;;;;;;;;;39.61;20.20;98661.13;5013478;28;19921;-86
2023/09/29 12:03:40;;;;;;;;;;;;;;;39.83;19.15;98655.31;5015235;28;19925;-86
2023/09/29 12:06:06;;;;;;;;;;;;;;;39.12;19.24;98654.16;5013930;28;20016;-88
2023/09/29 12:08:33;;;;;;;;;;;;;;;38.87;20.06;98666.72;5005794;28;19922;-88
2023/09/29 12:10:59;;;;;;;;;;;;;;;39.66;18.90;98651.72;5015588;28;20400;-87
2023/09/29 12:13:25;;;;;;;;;;;;;;;40.02;18.75;98649.75;5013301;28;19948;-88
2023/09/29 12:15:51;;;;;;;;;;;;;;;40.39;18.16;98652.13;5013254;28;20026;-88
2023/09/29 12:18:17;;;;;;;;;;;;;;;40.51;16.81;98645.00;5014520;28;19949;-88
2023/09/29 12:20:43;;;;;;;;;;;;;;;38.94;17.98;98640.34;5008221;28;20370;-87
2023/09/29 12:23:09;;;;;;;;;;;;;;;38.78;20.32;98649.75;5003511;28;19921;-88
2023/09/29 12:25:36;;;;;;;;;;;;;;;39.09;19.45;98637.19;5007151;28;19925;-89
2023/09/29 12:28:05;;;;;;;;;;;;;;;39.30;17.47;98639.25;5012157;28;19951;-91
2023/09/29 12:30:32;;;;;;;;;;;;;;;39.77;17.54;98637.28;5006719;28;19960;-92
2023/09/29 12:32:58;;;;;;;;;;;;;;;39.72;18.20;98638.13;5005321;28;20390;-93
2023/09/29 12:35:24;;;;;;;;;;;;;;;39.88;18.37;98630.72;4998403;28;20004;-93
2023/09/29 12:37:50;;;;;;;;;;;;;;;39.92;17.27;98632.00;5003573;28;19944;-92
2023/09/29 12:40:16;;;;;;;;;;;;;;;39.93;18.21;98619.16;5007699;28;20389;-91
2023/09/29 12:42:49;;;;;;;;;;;;;;;40.37;17.73;98625.97;5006601;28;19925;-91
2023/09/29 12:45:17;;;;;;;;;;;;;;;40.57;16.74;98620.63;5007900;28;20373;-91
2023/09/29 12:47:44;;;;;;;;;;;;;;;40.59;18.40;98620.06;5011965;28;19921;-91
2023/09/29 12:50:10;;;;;;;;;;;;;;;40.69;17.17;98621.31;5010912;28;20301;-91